Strona główna
METAR-TAF:

METAR-TAF

Lotnisko :

Port lotniczy Surabaja-Juanda

Gerbangkertosusila, Indonezja

Szerokość geograficzna: 07-22-47S, Długość geograficzna: 112-47-13E, wysokość: 3 m

METAR: brakujący

czas: 11:04 (04:04 UTC)

Prognoza

Raport powstał 5 godziny i 4 minut temu, godzina 23:00 UTC
Prognoza ważna od 11 godzina 00 UTC do 12 godzina 00 UTC
Wiatr 10 kt od wschód
Widzialność 10 km lub więcej
Mało chmury na wysokości 2000 ft
Prawdopodobieństwo 40% :
Przejściowo
od 11 godzina 13 UTC do 11 godzina 16 UTC
Wiatr 15 kt od południowy zachód
Widzialność: 4000 m
Rozproszone chmury na wysokości 1800 ft, Cumulonimbus.
burza, deszcz
Stopniowe zmiany
od 11 godzina 16 UTC do 11 godzina 18 UTC
Wiatr 5 kt od zachód
Widzialność: 4000 m
zmętnienie

TAF: WARR 102300Z 1100/1200 09010KT 9999 FEW020 PROB40 TEMPO 1113/1116 22015KT 4000 TSRA SCT018CB BECMG 1116/1118 26005KT 4000 HZ

Obserwacja i prognoza pogody dla ponad 4000 lotnisk (raport METAR i TAF).

Dostępne stacje oznaczono żółtymi i czerwonymi punktami na mapie.

Najedź kursorem aby zobaczyć nazwę stacji.

Kliknij aby zobaczyć obserwacje i prognozy pogody.

Aby zmienić mapę: kliknij na zielony przycisk z czarnym krzyżykiem, aby powiększyć; na zielony przycisk z myślnikiem, aby pomniejszyć; na zielone strzałki, aby przejść do map sąsiednich.


METAR-TAF: